This is the latest recevied weather packets stored in our database for station/object E20TWR-1. If no packets are shown the sender has not sent any weather packets the latest 10 day(s).
| Time | Temp. | Humidity | Pressure | Rain* | Wind** | Luminosity | Snow |
|---|---|---|---|---|---|---|---|
| 1777081788 | 36.67° C | 45% | 1012 hPa | - | - | 0 W/m² | - |
| 1777081161 | 36.67° C | 45% | 1012 hPa | - | - | 0 W/m² | - |
| 1777080536 | 36.67° C | 45% | 1012 hPa | - | - | 0 W/m² | - |
| 1777079910 | 37.22° C | 45% | 1012 hPa | - | - | 0 W/m² | - |
| 1777079285 | 37.22° C | 44% | 1012 hPa | - | - | 0 W/m² | - |
| 1777078659 | 37.22° C | 45% | 1011 hPa | - | - | 0 W/m² | - |
| 1777078034 | 36.67° C | 47% | 1011 hPa | - | - | 0 W/m² | - |
| 1777077409 | 36.67° C | 47% | 1011 hPa | - | - | 0 W/m² | - |
| 1777076783 | 36.67° C | 46% | 1011 hPa | - | - | 0 W/m² | - |
| 1777076157 | 37.22° C | 46% | 1011 hPa | - | - | 0 W/m² | - |
| 1777075531 | 37.22° C | 45% | 1010 hPa | - | - | 0 W/m² | - |
| 1777074905 | 37.22° C | 45% | 1010 hPa | - | - | 0 W/m² | - |
| 1777074280 | 37.78° C | 45% | 1010 hPa | - | - | 0 W/m² | - |
| 1777073654 | 37.78° C | 44% | 1010 hPa | - | - | 0 W/m² | - |
| 1777073029 | 37.78° C | 45% | 1010 hPa | - | - | 0 W/m² | - |
| 1777072404 | 37.22° C | 45% | 1009 hPa | - | - | 0 W/m² | - |
| 1777071778 | 37.78° C | 44% | 1009 hPa | - | - | 0 W/m² | - |
| 1777071153 | 37.78° C | 44% | 1009 hPa | - | - | 0 W/m² | - |
| 1777070527 | 37.78° C | 44% | 1009 hPa | - | - | 0 W/m² | - |
| 1777069902 | 37.78° C | 45% | 1009 hPa | - | - | 0 W/m² | - |
| 1777069277 | 36.67° C | 46% | 1009 hPa | - | - | 0 W/m² | - |
| 1777068650 | 35.56° C | 49% | 1009 hPa | - | - | 0 W/m² | - |
| 1777068025 | 33.89° C | 52% | 1008 hPa | - | - | 0 W/m² | - |
| 1777067400 | 32.22° C | 56% | 1008 hPa | - | - | 0 W/m² | - |
* Rain since midnight (hover to see other rain measurements)
** Current wind speed in m/s (hover to see current wind gust speed)